sensor_id;sensor_type;location;lat;lon;timestamp;pressure;altitude;pressure_sealevel;temperature;humidity
13314;BME280;6725;48.112;11.604;2023-01-31T00:00:29;95840.53;;;2.95;100.00
13314;BME280;6725;48.112;11.604;2023-01-31T00:02:55;95839.88;;;2.98;100.00
13314;BME280;6725;48.112;11.604;2023-01-31T00:05:20;95853.00;;;3.00;100.00
13314;BME280;6725;48.112;11.604;2023-01-31T00:07:45;95861.91;;;3.00;100.00
13314;BME280;6725;48.112;11.604;2023-01-31T00:10:12;95840.06;;;3.05;100.00
13314;BME280;6725;48.112;11.604;2023-01-31T00:12:37;95841.19;;;3.04;100.00
13314;BME280;6725;48.112;11.604;2023-01-31T00:15:03;95847.69;;;3.03;100.00
13314;BME280;6725;48.112;11.604;2023-01-31T00:17:28;95842.22;;;3.00;100.00
13314;BME280;6725;48.112;11.604;2023-01-31T00:19:54;95839.88;;;2.98;100.00
13314;BME280;6725;48.112;11.604;2023-01-31T00:22:19;95840.66;;;2.99;100.00
13314;BME280;6725;48.112;11.604;2023-01-31T00:24:44;95849.97;;;3.01;100.00
13314;BME280;6725;48.112;11.604;2023-01-31T00:27:10;95849.44;;;2.96;100.00
13314;BME280;6725;48.112;11.604;2023-01-31T00:29:35;95841.75;;;2.98;100.00
13314;BME280;6725;48.112;11.604;2023-01-31T00:32:00;95837.44;;;2.93;100.00
13314;BME280;6725;48.112;11.604;2023-01-31T00:34:26;95843.00;;;3.00;100.00
13314;BME280;6725;48.112;11.604;2023-01-31T00:36:51;95842.91;;;2.97;100.00
13314;BME280;6725;48.112;11.604;2023-01-31T00:39:16;95850.19;;;2.96;100.00
13314;BME280;6725;48.112;11.604;2023-01-31T00:41:42;95849.78;;;2.94;100.00
13314;BME280;6725;48.112;11.604;2023-01-31T00:44:07;95849.78;;;2.94;100.00
13314;BME280;6725;48.112;11.604;2023-01-31T00:46:33;95842.81;;;2.93;100.00
13314;BME280;6725;48.112;11.604;2023-01-31T00:48:58;95847.75;;;2.91;100.00
13314;BME280;6725;48.112;11.604;2023-01-31T00:51:24;95850.38;;;2.88;100.00
13314;BME280;6725;48.112;11.604;2023-01-31T00:53:50;95844.84;;;2.84;100.00
13314;BME280;6725;48.112;11.604;2023-01-31T00:56:22;95849.56;;;2.87;100.00
13314;BME280;6725;48.112;11.604;2023-01-31T00:58:48;95837.66;;;2.88;100.00
13314;BME280;6725;48.112;11.604;2023-01-31T01:03:45;95825.31;;;2.87;100.00
13314;BME280;6725;48.112;11.604;2023-01-31T01:06:11;95834.06;;;2.84;100.00
13314;BME280;6725;48.112;11.604;2023-01-31T01:08:38;95830.78;;;2.91;100.00
13314;BME280;6725;48.112;11.604;2023-01-31T01:11:11;95844.84;;;2.84;100.00
13314;BME280;6725;48.112;11.604;2023-01-31T01:13:37;95829.38;;;2.81;100.00
13314;BME280;6725;48.112;11.604;2023-01-31T01:16:07;95837.09;;;2.83;100.00
13314;BME280;6725;48.112;11.604;2023-01-31T01:18:33;95833.41;;;2.87;100.00
13314;BME280;6725;48.112;11.604;2023-01-31T01:21:10;95842.63;;;2.86;100.00
13314;BME280;6725;48.112;11.604;2023-01-31T01:23:36;95845.66;;;2.85;100.00
13314;BME280;6725;48.112;11.604;2023-01-31T01:26:02;95838.69;;;2.84;100.00
13314;BME280;6725;48.112;11.604;2023-01-31T01:28:28;95841.75;;;2.82;100.00
13314;BME280;6725;48.112;11.604;2023-01-31T01:30:53;95851.81;;;2.85;100.00
13314;BME280;6725;48.112;11.604;2023-01-31T01:33:18;95849.72;;;2.79;100.00
13314;BME280;6725;48.112;11.604;2023-01-31T01:35:44;95853.09;;;2.76;100.00
13314;BME280;6725;48.112;11.604;2023-01-31T01:38:09;95850.03;;;2.77;100.00
13314;BME280;6725;48.112;11.604;2023-01-31T01:40:37;95853.78;;;2.73;100.00
13314;BME280;6725;48.112;11.604;2023-01-31T01:43:02;95843.56;;;2.78;100.00
13314;BME280;6725;48.112;11.604;2023-01-31T01:45:28;95852.41;;;2.79;100.00
13314;BME280;6725;48.112;11.604;2023-01-31T01:47:57;95851.72;;;2.82;100.00
13314;BME280;6725;48.112;11.604;2023-01-31T01:50:28;95862.50;;;2.82;100.00
13314;BME280;6725;48.112;11.604;2023-01-31T01:53:01;95855.91;;;2.79;100.00
13314;BME280;6725;48.112;11.604;2023-01-31T01:55:35;95857.91;;;2.82;100.00
13314;BME280;6725;48.112;11.604;2023-01-31T01:58:14;95857.47;;;2.80;100.00
13314;BME280;6725;48.112;11.604;2023-01-31T02:00:40;95861.72;;;2.81;100.00
13314;BME280;6725;48.112;11.604;2023-01-31T02:03:07;95864.41;;;2.81;100.00
13314;BME280;6725;48.112;11.604;2023-01-31T02:05:45;95871.41;;;2.82;100.00
13314;BME280;6725;48.112;11.604;2023-01-31T02:08:13;95867.81;;;2.78;100.00
13314;BME280;6725;48.112;11.604;2023-01-31T02:10:44;95871.63;;;2.77;100.00
13314;BME280;6725;48.112;11.604;2023-01-31T02:13:12;95868.03;;;2.73;100.00
13314;BME280;6725;48.112;11.604;2023-01-31T02:15:38;95853.00;;;2.72;100.00
13314;BME280;6725;48.112;11.604;2023-01-31T02:18:03;95869.16;;;2.72;100.00
13314;BME280;6725;48.112;11.604;2023-01-31T02:20:56;95857.94;;;2.70;100.00
13314;BME280;6725;48.112;11.604;2023-01-31T02:24:29;95874.66;;;2.76;100.00
13314;BME280;6725;48.112;11.604;2023-01-31T02:32:40;95870.97;;;2.68;100.00
13314;BME280;6725;48.112;11.604;2023-01-31T02:35:23;95879.06;;;2.68;100.00
13314;BME280;6725;48.112;11.604;2023-01-31T02:41:18;95874.34;;;2.65;100.00
13314;BME280;6725;48.112;11.604;2023-01-31T02:44:00;95857.50;;;2.68;100.00
13314;BME280;6725;48.112;11.604;2023-01-31T02:46:55;95865.59;;;2.68;100.00
13314;BME280;6725;48.112;11.604;2023-01-31T02:49:34;95872.44;;;2.66;100.00
13314;BME280;6725;48.112;11.604;2023-01-31T02:52:30;95876.25;;;2.65;100.00
13314;BME280;6725;48.112;11.604;2023-01-31T02:57:50;95866.50;;;2.60;100.00
13314;BME280;6725;48.112;11.604;2023-01-31T03:00:18;95867.28;;;2.61;100.00
13314;BME280;6725;48.112;11.604;2023-01-31T03:02:44;95864.25;;;2.62;100.00
13314;BME280;6725;48.112;11.604;2023-01-31T03:05:16;95871.03;;;2.56;100.00
13314;BME280;6725;48.112;11.604;2023-01-31T03:07:46;95876.84;;;2.58;100.00
13314;BME280;6725;48.112;11.604;2023-01-31T03:18:51;95890.09;;;2.51;100.00
13314;BME280;6725;48.112;11.604;2023-01-31T03:21:32;95877.28;;;2.48;100.00
13314;BME280;6725;48.112;11.604;2023-01-31T03:24:01;95875.72;;;2.47;100.00
13314;BME280;6725;48.112;11.604;2023-01-31T03:26:29;95883.16;;;2.50;100.00
13314;BME280;6725;48.112;11.604;2023-01-31T03:28:56;95884.72;;;2.51;100.00
13314;BME280;6725;48.112;11.604;2023-01-31T03:31:31;95897.84;;;2.53;100.00
13314;BME280;6725;48.112;11.604;2023-01-31T03:34:03;95906.25;;;2.51;100.00
13314;BME280;6725;48.112;11.604;2023-01-31T03:36:47;95909.41;;;2.53;100.00
13314;BME280;6725;48.112;11.604;2023-01-31T03:39:36;95913.22;;;2.52;100.00
13314;BME280;6725;48.112;11.604;2023-01-31T03:42:06;95916.38;;;2.54;100.00
13314;BME280;6725;48.112;11.604;2023-01-31T03:47:40;95922.34;;;2.48;100.00
13314;BME280;6725;48.112;11.604;2023-01-31T03:50:15;95920.75;;;2.47;100.00
13314;BME280;6725;48.112;11.604;2023-01-31T03:52:59;95916.16;;;2.47;100.00
13314;BME280;6725;48.112;11.604;2023-01-31T03:55:30;95917.97;;;2.43;100.00
13314;BME280;6725;48.112;11.604;2023-01-31T03:57:59;95922.88;;;2.41;100.00
13314;BME280;6725;48.112;11.604;2023-01-31T04:00:27;95926.72;;;2.40;100.00
13314;BME280;6725;48.112;11.604;2023-01-31T04:02:57;95921.09;;;2.33;100.00
13314;BME280;6725;48.112;11.604;2023-01-31T04:05:26;95920.22;;;2.29;100.00
13314;BME280;6725;48.112;11.604;2023-01-31T04:07:56;95929.84;;;2.30;100.00
13314;BME280;6725;48.112;11.604;2023-01-31T04:10:22;95924.69;;;2.25;100.00
13314;BME280;6725;48.112;11.604;2023-01-31T04:12:47;95924.25;;;2.23;100.00
13314;BME280;6725;48.112;11.604;2023-01-31T04:15:13;95927.84;;;2.27;100.00
13314;BME280;6725;48.112;11.604;2023-01-31T04:17:39;95931.75;;;2.18;100.00
13314;BME280;6725;48.112;11.604;2023-01-31T04:20:05;95936.81;;;2.19;100.00
13314;BME280;6725;48.112;11.604;2023-01-31T04:22:31;95941.44;;;2.19;100.00
13314;BME280;6725;48.112;11.604;2023-01-31T04:24:56;95942.91;;;2.16;100.00
13314;BME280;6725;48.112;11.604;2023-01-31T04:27:22;95943.56;;;2.13;100.00
13314;BME280;6725;48.112;11.604;2023-01-31T04:29:47;95940.41;;;2.11;100.00
13314;BME280;6725;48.112;11.604;2023-01-31T04:32:13;95939.06;;;2.05;100.00
13314;BME280;6725;48.112;11.604;2023-01-31T04:34:38;95938.84;;;2.10;100.00
13314;BME280;6725;48.112;11.604;2023-01-31T04:37:04;95940.72;;;2.10;100.00
13314;BME280;6725;48.112;11.604;2023-01-31T04:39:29;95942.31;;;2.11;100.00
13314;BME280;6725;48.112;11.604;2023-01-31T04:41:54;95950.50;;;2.14;100.00
13314;BME280;6725;48.112;11.604;2023-01-31T04:44:20;95951.19;;;2.11;100.00
13314;BME280;6725;48.112;11.604;2023-01-31T04:46:45;95959.16;;;2.08;100.00
13314;BME280;6725;48.112;11.604;2023-01-31T04:49:13;95957.47;;;2.15;100.00
13314;BME280;6725;48.112;11.604;2023-01-31T04:51:39;95964.31;;;2.13;100.00
13314;BME280;6725;48.112;11.604;2023-01-31T04:54:05;95964.22;;;2.09;100.00
13314;BME280;6725;48.112;11.604;2023-01-31T04:56:31;95968.22;;;2.15;100.00
13314;BME280;6725;48.112;11.604;2023-01-31T04:58:56;95982.16;;;2.17;100.00
13314;BME280;6725;48.112;11.604;2023-01-31T05:01:22;95985.06;;;2.12;100.00
13314;BME280;6725;48.112;11.604;2023-01-31T05:03:47;95987.41;;;2.14;100.00
13314;BME280;6725;48.112;11.604;2023-01-31T05:06:12;95988.22;;;2.14;100.00
13314;BME280;6725;48.112;11.604;2023-01-31T05:08:38;95996.97;;;2.11;100.00
13314;BME280;6725;48.112;11.604;2023-01-31T05:11:03;95991.38;;;2.16;100.00
13314;BME280;6725;48.112;11.604;2023-01-31T05:13:31;95993.38;;;2.19;100.00
13314;BME280;6725;48.112;11.604;2023-01-31T05:15:57;95987.41;;;2.14;100.00
13314;BME280;6725;48.112;11.604;2023-01-31T05:18:25;96000.56;;;2.15;100.00
13314;BME280;6725;48.112;11.604;2023-01-31T05:20:51;96004.47;;;2.18;100.00
13314;BME280;6725;48.112;11.604;2023-01-31T05:23:17;96004.03;;;2.16;100.00
13314;BME280;6725;48.112;11.604;2023-01-31T05:25:43;96004.38;;;2.14;100.00
13314;BME280;6725;48.112;11.604;2023-01-31T05:28:10;96004.28;;;2.11;100.00
13314;BME280;6725;48.112;11.604;2023-01-31T05:30:36;96010.88;;;2.13;100.00
13314;BME280;6725;48.112;11.604;2023-01-31T05:33:01;96012.13;;;2.16;100.00
13314;BME280;6725;48.112;11.604;2023-01-31T05:35:26;96006.59;;;2.12;100.00
13314;BME280;6725;48.112;11.604;2023-01-31T05:37:53;96011.88;;;2.09;100.00
13314;BME280;6725;48.112;11.604;2023-01-31T05:40:19;96002.56;;;2.06;100.00
13314;BME280;6725;48.112;11.604;2023-01-31T05:42:49;96003.34;;;2.07;100.00
13314;BME280;6725;48.112;11.604;2023-01-31T05:45:17;96003.00;;;2.08;100.00
13314;BME280;6725;48.112;11.604;2023-01-31T05:47:45;96001.78;;;2.06;100.00
13314;BME280;6725;48.112;11.604;2023-01-31T05:50:11;96005.69;;;2.08;100.00
13314;BME280;6725;48.112;11.604;2023-01-31T05:52:36;96011.41;;;2.07;100.00
13314;BME280;6725;48.112;11.604;2023-01-31T05:55:01;96013.34;;;2.06;100.00
13314;BME280;6725;48.112;11.604;2023-01-31T05:57:27;96016.38;;;2.05;100.00
13314;BME280;6725;48.112;11.604;2023-01-31T05:59:52;96021.41;;;2.06;100.00
13314;BME280;6725;48.112;11.604;2023-01-31T06:02:17;96022.56;;;2.05;100.00
13314;BME280;6725;48.112;11.604;2023-01-31T06:04:43;96027.00;;;2.01;100.00
13314;BME280;6725;48.112;11.604;2023-01-31T06:07:08;96017.94;;;2.06;100.00
13314;BME280;6725;48.112;11.604;2023-01-31T06:09:33;96018.72;;;2.06;100.00
13314;BME280;6725;48.112;11.604;2023-01-31T06:11:59;96023.22;;;2.02;100.00
13314;BME280;6725;48.112;11.604;2023-01-31T06:14:24;96030.16;;;2.03;100.00
13314;BME280;6725;48.112;11.604;2023-01-31T06:16:49;96014.25;;;2.10;100.00
13314;BME280;6725;48.112;11.604;2023-01-31T06:19:15;96017.16;;;2.05;100.00
13314;BME280;6725;48.112;11.604;2023-01-31T06:21:40;96021.63;;;2.01;100.00
13314;BME280;6725;48.112;11.604;2023-01-31T06:24:06;96023.22;;;2.02;100.00
13314;BME280;6725;48.112;11.604;2023-01-31T06:26:31;96010.84;;;2.01;100.00
13314;BME280;6725;48.112;11.604;2023-01-31T06:28:56;96017.81;;;2.02;100.00
13314;BME280;6725;48.112;11.604;2023-01-31T06:31:22;96014.00;;;2.03;100.00
13314;BME280;6725;48.112;11.604;2023-01-31T06:33:48;96004.78;;;2.04;100.00
13314;BME280;6725;48.112;11.604;2023-01-31T06:36:14;96027.94;;;2.05;100.00
13314;BME280;6725;48.112;11.604;2023-01-31T06:38:40;96029.84;;;2.05;100.00
13314;BME280;6725;48.112;11.604;2023-01-31T06:41:05;96037.59;;;2.06;100.00
13314;BME280;6725;48.112;11.604;2023-01-31T06:43:31;96051.47;;;2.08;100.00
13314;BME280;6725;48.112;11.604;2023-01-31T06:45:56;96051.03;;;2.06;100.00
13314;BME280;6725;48.112;11.604;2023-01-31T06:48:21;96051.16;;;2.10;100.00
13314;BME280;6725;48.112;11.604;2023-01-31T06:50:46;96049.03;;;2.15;100.00
13314;BME280;6725;48.112;11.604;2023-01-31T06:53:12;96051.28;;;2.13;100.00
13314;BME280;6725;48.112;11.604;2023-01-31T06:55:38;96045.91;;;2.13;100.00
13314;BME280;6725;48.112;11.604;2023-01-31T06:58:03;96060.72;;;2.19;100.00
13314;BME280;6725;48.112;11.604;2023-01-31T07:00:30;96063.06;;;2.21;100.00
13314;BME280;6725;48.112;11.604;2023-01-31T07:02:55;96067.13;;;2.15;100.00
13314;BME280;6725;48.112;11.604;2023-01-31T07:05:21;96077.78;;;2.23;100.00
13314;BME280;6725;48.112;11.604;2023-01-31T07:07:46;96073.34;;;2.51;100.00
13314;BME280;6725;48.112;11.604;2023-01-31T07:10:13;96090.22;;;2.72;100.00
13314;BME280;6725;48.112;11.604;2023-01-31T07:12:39;96100.81;;;2.89;100.00
13314;BME280;6725;48.112;11.604;2023-01-31T07:15:05;96095.28;;;3.34;100.00
13314;BME280;6725;48.112;11.604;2023-01-31T07:17:30;96106.22;;;3.77;100.00
13314;BME280;6725;48.112;11.604;2023-01-31T07:19:57;96108.78;;;4.41;100.00
13314;BME280;6725;48.112;11.604;2023-01-31T07:22:23;96132.31;;;4.99;100.00
13314;BME280;6725;48.112;11.604;2023-01-31T07:24:49;96131.94;;;5.47;100.00
13314;BME280;6725;48.112;11.604;2023-01-31T07:27:15;96150.16;;;6.00;100.00
13314;BME280;6725;48.112;11.604;2023-01-31T07:29:40;96151.88;;;6.08;100.00
13314;BME280;6725;48.112;11.604;2023-01-31T07:32:06;96161.06;;;6.38;100.00
13314;BME280;6725;48.112;11.604;2023-01-31T07:34:31;96160.88;;;6.69;100.00
13314;BME280;6725;48.112;11.604;2023-01-31T07:36:56;96162.97;;;6.98;100.00
13314;BME280;6725;48.112;11.604;2023-01-31T07:39:22;96159.13;;;7.22;100.00
13314;BME280;6725;48.112;11.604;2023-01-31T07:41:48;96158.13;;;6.88;100.00
13314;BME280;6725;48.112;11.604;2023-01-31T07:44:13;96163.28;;;7.64;100.00
13314;BME280;6725;48.112;11.604;2023-01-31T07:46:39;96157.75;;;7.57;100.00
13314;BME280;6725;48.112;11.604;2023-01-31T07:49:05;96173.72;;;8.40;100.00
13314;BME280;6725;48.112;11.604;2023-01-31T07:51:30;96163.78;;;8.88;100.00
13314;BME280;6725;48.112;11.604;2023-01-31T07:53:55;96174.31;;;9.29;100.00
13314;BME280;6725;48.112;11.604;2023-01-31T07:56:21;96172.41;;;9.30;100.00
13314;BME280;6725;48.112;11.604;2023-01-31T07:58:48;96171.72;;;9.03;100.00
13314;BME280;6725;48.112;11.604;2023-01-31T08:01:16;96172.94;;;9.06;100.00
13314;BME280;6725;48.112;11.604;2023-01-31T08:04:01;96176.63;;;8.54;100.00
13314;BME280;6725;48.112;11.604;2023-01-31T08:06:30;96174.53;;;8.74;100.00
13314;BME280;6725;48.112;11.604;2023-01-31T08:08:56;96169.75;;;9.00;100.00
13314;BME280;6725;48.112;11.604;2023-01-31T08:11:22;96177.91;;;9.37;100.00
13314;BME280;6725;48.112;11.604;2023-01-31T08:13:47;96166.38;;;8.74;100.00
13314;BME280;6725;48.112;11.604;2023-01-31T08:16:13;96170.03;;;8.88;100.00
13314;BME280;6725;48.112;11.604;2023-01-31T08:18:39;96169.00;;;9.03;100.00
13314;BME280;6725;48.112;11.604;2023-01-31T08:21:04;96169.56;;;9.19;100.00
13314;BME280;6725;48.112;11.604;2023-01-31T08:23:31;96164.84;;;8.76;100.00
13314;BME280;6725;48.112;11.604;2023-01-31T08:26:01;96169.22;;;9.24;100.00
13314;BME280;6725;48.112;11.604;2023-01-31T08:28:27;96174.66;;;8.84;100.00
13314;BME280;6725;48.112;11.604;2023-01-31T08:30:52;96163.41;;;8.89;100.00
13314;BME280;6725;48.112;11.604;2023-01-31T08:33:18;96174.75;;;9.31;100.00
13314;BME280;6725;48.112;11.604;2023-01-31T08:35:43;96176.75;;;9.85;100.00
13314;BME280;6725;48.112;11.604;2023-01-31T08:38:08;96178.13;;;9.61;100.00
13314;BME280;6725;48.112;11.604;2023-01-31T08:40:34;96185.28;;;9.36;100.00
13314;BME280;6725;48.112;11.604;2023-01-31T08:42:59;96188.75;;;8.60;100.00
13314;BME280;6725;48.112;11.604;2023-01-31T08:45:26;96183.06;;;9.05;100.00
13314;BME280;6725;48.112;11.604;2023-01-31T08:47:57;96186.22;;;9.51;100.00
13314;BME280;6725;48.112;11.604;2023-01-31T08:50:24;96184.75;;;10.14;100.00
13314;BME280;6725;48.112;11.604;2023-01-31T08:52:57;96183.63;;;10.16;100.00
13314;BME280;6725;48.112;11.604;2023-01-31T08:55:25;96179.19;;;10.00;100.00
13314;BME280;6725;48.112;11.604;2023-01-31T08:57:51;96179.16;;;9.97;100.00
13314;BME280;6725;48.112;11.604;2023-01-31T09:00:17;96168.72;;;9.55;100.00
13314;BME280;6725;48.112;11.604;2023-01-31T09:02:43;96165.84;;;9.88;100.00
13314;BME280;6725;48.112;11.604;2023-01-31T09:05:11;96172.34;;;9.73;100.00
13314;BME280;6725;48.112;11.604;2023-01-31T09:07:37;96177.16;;;9.40;100.00
13314;BME280;6725;48.112;11.604;2023-01-31T09:10:02;96176.38;;;9.43;100.00
13314;BME280;6725;48.112;11.604;2023-01-31T09:12:27;96172.97;;;9.49;100.00
13314;BME280;6725;48.112;11.604;2023-01-31T09:14:53;96173.38;;;10.02;100.00
13314;BME280;6725;48.112;11.604;2023-01-31T09:17:18;96165.09;;;9.91;100.00
13314;BME280;6725;48.112;11.604;2023-01-31T09:19:44;96176.50;;;9.57;100.00
13314;BME280;6725;48.112;11.604;2023-01-31T09:22:12;96178.00;;;9.47;100.00
13314;BME280;6725;48.112;11.604;2023-01-31T09:24:37;96166.31;;;9.97;100.00
13314;BME280;6725;48.112;11.604;2023-01-31T09:27:03;96155.91;;;10.13;100.00
13314;BME280;6725;48.112;11.604;2023-01-31T09:29:29;96155.03;;;10.02;100.00
13314;BME280;6725;48.112;11.604;2023-01-31T09:31:54;96167.56;;;9.56;100.00
13314;BME280;6725;48.112;11.604;2023-01-31T09:34:20;96165.19;;;9.11;100.00
13314;BME280;6725;48.112;11.604;2023-01-31T09:36:46;96166.00;;;9.12;100.00
13314;BME280;6725;48.112;11.604;2023-01-31T09:39:12;96173.88;;;9.20;100.00
13314;BME280;6725;48.112;11.604;2023-01-31T09:41:50;96180.09;;;9.64;100.00
13314;BME280;6725;48.112;11.604;2023-01-31T09:44:30;96180.47;;;9.66;100.00
13314;BME280;6725;48.112;11.604;2023-01-31T09:47:20;96183.81;;;9.89;100.00
13314;BME280;6725;48.112;11.604;2023-01-31T09:49:50;96183.69;;;9.75;100.00
13314;BME280;6725;48.112;11.604;2023-01-31T09:52:16;96181.25;;;9.63;100.00
13314;BME280;6725;48.112;11.604;2023-01-31T09:54:43;96181.75;;;9.29;100.00
13314;BME280;6725;48.112;11.604;2023-01-31T10:05:36;96195.88;;;7.38;100.00
13314;BME280;6725;48.112;11.604;2023-01-31T10:08:39;96196.13;;;7.78;100.00
13314;BME280;6725;48.112;11.604;2023-01-31T10:11:17;96182.38;;;8.49;100.00
13314;BME280;6725;48.112;11.604;2023-01-31T10:14:00;96180.34;;;8.72;100.00
13314;BME280;6725;48.112;11.604;2023-01-31T10:19:22;96159.78;;;8.45;100.00
13314;BME280;6725;48.112;11.604;2023-01-31T10:21:54;96158.88;;;8.34;100.00
13314;BME280;6725;48.112;11.604;2023-01-31T10:26:50;96142.72;;;7.41;100.00
13314;BME280;6725;48.112;11.604;2023-01-31T10:31:55;96131.88;;;6.73;100.00
13314;BME280;6725;48.112;11.604;2023-01-31T10:34:42;96148.03;;;6.47;100.00
13314;BME280;6725;48.112;11.604;2023-01-31T10:37:11;96141.28;;;6.18;100.00
13314;BME280;6725;48.112;11.604;2023-01-31T10:42:33;96142.31;;;5.95;100.00
13314;BME280;6725;48.112;11.604;2023-01-31T10:45:05;96139.63;;;6.14;100.00
13314;BME280;6725;48.112;11.604;2023-01-31T10:47:44;96147.66;;;5.91;100.00
13314;BME280;6725;48.112;11.604;2023-01-31T10:53:14;96138.56;;;5.99;100.00
13314;BME280;6725;48.112;11.604;2023-01-31T10:58:44;96140.41;;;5.30;100.00
13314;BME280;6725;48.112;11.604;2023-01-31T11:01:10;96134.22;;;5.29;100.00
13314;BME280;6725;48.112;11.604;2023-01-31T11:03:39;96134.22;;;5.14;100.00
13314;BME280;6725;48.112;11.604;2023-01-31T11:06:05;96128.13;;;5.17;100.00
13314;BME280;6725;48.112;11.604;2023-01-31T11:08:49;96125.13;;;5.22;100.00
13314;BME280;6725;48.112;11.604;2023-01-31T11:11:18;96114.47;;;5.29;100.00
13314;BME280;6725;48.112;11.604;2023-01-31T11:13:58;96105.50;;;5.09;100.00
13314;BME280;6725;48.112;11.604;2023-01-31T11:16:34;96108.81;;;5.18;100.00
13314;BME280;6725;48.112;11.604;2023-01-31T11:19:02;96097.56;;;5.01;100.00
13314;BME280;6725;48.112;11.604;2023-01-31T11:21:33;96098.06;;;5.22;100.00
13314;BME280;6725;48.112;11.604;2023-01-31T11:24:05;96091.50;;;5.38;100.00
13314;BME280;6725;48.112;11.604;2023-01-31T11:26:39;96097.03;;;5.11;100.00
13314;BME280;6725;48.112;11.604;2023-01-31T11:29:17;96085.03;;;5.27;100.00
13314;BME280;6725;48.112;11.604;2023-01-31T11:31:45;96081.13;;;5.25;100.00
13314;BME280;6725;48.112;11.604;2023-01-31T11:34:28;96071.53;;;5.12;100.00
13314;BME280;6725;48.112;11.604;2023-01-31T11:37:11;96059.13;;;5.11;100.00
13314;BME280;6725;48.112;11.604;2023-01-31T11:39:38;96055.47;;;5.03;100.00
13314;BME280;6725;48.112;11.604;2023-01-31T11:42:14;96051.47;;;4.82;100.00
13314;BME280;6725;48.112;11.604;2023-01-31T11:45:17;96046.78;;;4.79;100.00
13314;BME280;6725;48.112;11.604;2023-01-31T11:47:49;96030.53;;;4.79;100.00
13314;BME280;6725;48.112;11.604;2023-01-31T11:50:20;96048.94;;;4.89;100.00
13314;BME280;6725;48.112;11.604;2023-01-31T11:52:46;96040.47;;;5.06;100.00
13314;BME280;6725;48.112;11.604;2023-01-31T11:55:17;96035.88;;;5.25;100.00
13314;BME280;6725;48.112;11.604;2023-01-31T11:57:43;96034.13;;;5.33;100.00
13314;BME280;6725;48.112;11.604;2023-01-31T12:00:26;96031.13;;;5.38;100.00
13314;BME280;6725;48.112;11.604;2023-01-31T12:03:00;96012.25;;;5.22;100.00
13314;BME280;6725;48.112;11.604;2023-01-31T12:05:38;96015.66;;;5.38;100.00
13314;BME280;6725;48.112;11.604;2023-01-31T12:08:07;96015.72;;;5.42;100.00
13314;BME280;6725;48.112;11.604;2023-01-31T12:10:49;96006.34;;;5.36;100.00
13314;BME280;6725;48.112;11.604;2023-01-31T12:13:20;95992.34;;;5.34;100.00
13314;BME280;6725;48.112;11.604;2023-01-31T12:15:52;95981.97;;;5.55;100.00
13314;BME280;6725;48.112;11.604;2023-01-31T12:18:47;95992.44;;;5.37;100.00
13314;BME280;6725;48.112;11.604;2023-01-31T12:21:19;95984.84;;;5.43;100.00
13314;BME280;6725;48.112;11.604;2023-01-31T12:26:42;95981.97;;;5.55;100.00
13314;BME280;6725;48.112;11.604;2023-01-31T12:29:18;95972.69;;;5.56;100.00
13314;BME280;6725;48.112;11.604;2023-01-31T12:40:39;95975.56;;;5.63;100.00
13314;BME280;6725;48.112;11.604;2023-01-31T12:43:25;95983.97;;;5.77;100.00
13314;BME280;6725;48.112;11.604;2023-01-31T12:51:57;95964.16;;;5.54;100.00
13314;BME280;6725;48.112;11.604;2023-01-31T12:54:34;95975.00;;;5.54;100.00
13314;BME280;6725;48.112;11.604;2023-01-31T12:59:50;95966.94;;;5.38;100.00
13314;BME280;6725;48.112;11.604;2023-01-31T13:07:48;95968.13;;;5.60;100.00
13314;BME280;6725;48.112;11.604;2023-01-31T13:10:28;95966.72;;;5.66;100.00
13314;BME280;6725;48.112;11.604;2023-01-31T13:12:58;95955.75;;;5.59;100.00
13314;BME280;6725;48.112;11.604;2023-01-31T13:15:48;95948.31;;;5.56;100.00
13314;BME280;6725;48.112;11.604;2023-01-31T13:18:15;95942.56;;;5.57;100.00
13314;BME280;6725;48.112;11.604;2023-01-31T13:20:45;95939.63;;;5.66;100.00
13314;BME280;6725;48.112;11.604;2023-01-31T13:23:26;95942.78;;;5.87;100.00
13314;BME280;6725;48.112;11.604;2023-01-31T13:26:18;95940.84;;;5.87;100.00
13314;BME280;6725;48.112;11.604;2023-01-31T13:28:55;95951.19;;;5.82;100.00
13314;BME280;6725;48.112;11.604;2023-01-31T13:31:25;95920.34;;;6.09;100.00
13314;BME280;6725;48.112;11.604;2023-01-31T13:33:56;95917.78;;;5.97;100.00
13314;BME280;6725;48.112;11.604;2023-01-31T13:36:51;95911.25;;;5.79;100.00
13314;BME280;6725;48.112;11.604;2023-01-31T13:39:29;95894.44;;;5.70;100.00
13314;BME280;6725;48.112;11.604;2023-01-31T13:41:57;95899.53;;;5.75;100.00
13314;BME280;6725;48.112;11.604;2023-01-31T13:44:22;95889.72;;;5.67;100.00
13314;BME280;6725;48.112;11.604;2023-01-31T13:46:56;95893.44;;;5.59;100.00
13314;BME280;6725;48.112;11.604;2023-01-31T13:49:30;95891.53;;;5.59;100.00
13314;BME280;6725;48.112;11.604;2023-01-31T13:52:00;95892.28;;;5.60;100.00
13314;BME280;6725;48.112;11.604;2023-01-31T13:54:42;95894.50;;;5.54;100.00
13314;BME280;6725;48.112;11.604;2023-01-31T13:57:27;95895.16;;;5.48;100.00
13314;BME280;6725;48.112;11.604;2023-01-31T13:59:55;95902.13;;;5.49;100.00
13314;BME280;6725;48.112;11.604;2023-01-31T14:02:25;95895.31;;;5.36;100.00
13314;BME280;6725;48.112;11.604;2023-01-31T14:04:50;95895.88;;;5.26;100.00
13314;BME280;6725;48.112;11.604;2023-01-31T14:07:20;95902.72;;;5.20;100.00
13314;BME280;6725;48.112;11.604;2023-01-31T14:20:25;95897.44;;;5.08;100.00
13314;BME280;6725;48.112;11.604;2023-01-31T14:25:55;95901.22;;;5.03;100.00
13314;BME280;6725;48.112;11.604;2023-01-31T14:28:21;95903.13;;;4.84;100.00
13314;BME280;6725;48.112;11.604;2023-01-31T14:30:47;95888.69;;;4.95;100.00
13314;BME280;6725;48.112;11.604;2023-01-31T14:33:17;95884.56;;;4.82;100.00
13314;BME280;6725;48.112;11.604;2023-01-31T14:39:03;95870.53;;;4.77;100.00
13314;BME280;6725;48.112;11.604;2023-01-31T14:53:00;95873.06;;;4.70;100.00
13314;BME280;6725;48.112;11.604;2023-01-31T14:55:48;95873.22;;;4.77;100.00
13314;BME280;6725;48.112;11.604;2023-01-31T14:58:24;95857.97;;;4.69;100.00